sensor_id;sensor_type;location;lat;lon;timestamp;P1;durP1;ratioP1;P2;durP2;ratioP2
31770;SDS011;18343;50.152;8.182;2023-04-03T00:01:05;5.10;;;2.30;;
31770;SDS011;18343;50.152;8.182;2023-04-03T00:03:50;4.68;;;2.55;;
31770;SDS011;18343;50.152;8.182;2023-04-03T00:06:34;7.13;;;2.60;;
31770;SDS011;18343;50.152;8.182;2023-04-03T00:09:20;4.35;;;2.63;;
31770;SDS011;18343;50.152;8.182;2023-04-03T00:12:04;4.28;;;2.38;;
31770;SDS011;18343;50.152;8.182;2023-04-03T00:14:49;4.63;;;2.70;;
31770;SDS011;18343;50.152;8.182;2023-04-03T00:17:34;6.10;;;2.42;;
31770;SDS011;18343;50.152;8.182;2023-04-03T00:20:19;5.05;;;2.63;;
31770;SDS011;18343;50.152;8.182;2023-04-03T00:23:04;6.95;;;2.25;;
31770;SDS011;18343;50.152;8.182;2023-04-03T00:25:49;6.05;;;2.67;;
31770;SDS011;18343;50.152;8.182;2023-04-03T00:28:34;5.28;;;3.15;;
31770;SDS011;18343;50.152;8.182;2023-04-03T00:31:19;4.40;;;3.22;;
31770;SDS011;18343;50.152;8.182;2023-04-03T00:34:03;4.00;;;2.65;;
31770;SDS011;18343;50.152;8.182;2023-04-03T00:36:48;7.95;;;2.72;;
31770;SDS011;18343;50.152;8.182;2023-04-03T00:39:32;3.90;;;2.20;;
31770;SDS011;18343;50.152;8.182;2023-04-03T00:42:18;6.28;;;2.50;;
31770;SDS011;18343;50.152;8.182;2023-04-03T00:45:23;7.07;;;2.50;;
31770;SDS011;18343;50.152;8.182;2023-04-03T00:48:14;7.88;;;2.65;;
31770;SDS011;18343;50.152;8.182;2023-04-03T00:51:04;5.93;;;2.10;;
31770;SDS011;18343;50.152;8.182;2023-04-03T00:53:53;3.05;;;1.95;;
31770;SDS011;18343;50.152;8.182;2023-04-03T00:56:41;6.93;;;2.35;;
31770;SDS011;18343;50.152;8.182;2023-04-03T00:59:30;4.18;;;2.25;;
31770;SDS011;18343;50.152;8.182;2023-04-03T01:02:18;6.90;;;2.08;;
31770;SDS011;18343;50.152;8.182;2023-04-03T01:05:02;8.45;;;2.15;;
31770;SDS011;18343;50.152;8.182;2023-04-03T01:07:48;3.08;;;2.00;;
31770;SDS011;18343;50.152;8.182;2023-04-03T01:10:34;3.83;;;2.30;;
31770;SDS011;18343;50.152;8.182;2023-04-03T01:13:21;5.30;;;2.35;;
31770;SDS011;18343;50.152;8.182;2023-04-03T01:16:11;18.60;;;7.63;;
31770;SDS011;18343;50.152;8.182;2023-04-03T01:18:56;9.45;;;3.55;;
31770;SDS011;18343;50.152;8.182;2023-04-03T01:21:57;7.30;;;3.17;;
31770;SDS011;18343;50.152;8.182;2023-04-03T01:24:59;6.63;;;2.78;;
31770;SDS011;18343;50.152;8.182;2023-04-03T01:27:43;4.75;;;2.40;;
31770;SDS011;18343;50.152;8.182;2023-04-03T01:30:30;5.47;;;1.90;;
31770;SDS011;18343;50.152;8.182;2023-04-03T01:33:19;3.90;;;2.05;;
31770;SDS011;18343;50.152;8.182;2023-04-03T01:36:04;5.63;;;2.25;;
31770;SDS011;18343;50.152;8.182;2023-04-03T01:38:51;3.30;;;1.90;;
31770;SDS011;18343;50.152;8.182;2023-04-03T01:41:36;3.58;;;1.83;;
31770;SDS011;18343;50.152;8.182;2023-04-03T01:44:21;2.95;;;1.83;;
31770;SDS011;18343;50.152;8.182;2023-04-03T01:47:05;3.97;;;1.83;;
31770;SDS011;18343;50.152;8.182;2023-04-03T01:49:52;4.28;;;1.77;;
31770;SDS011;18343;50.152;8.182;2023-04-03T01:52:36;4.63;;;2.00;;
31770;SDS011;18343;50.152;8.182;2023-04-03T01:55:21;3.88;;;1.75;;
31770;SDS011;18343;50.152;8.182;2023-04-03T01:58:05;4.72;;;2.50;;
31770;SDS011;18343;50.152;8.182;2023-04-03T02:00:50;5.18;;;2.85;;
31770;SDS011;18343;50.152;8.182;2023-04-03T02:03:35;8.77;;;4.00;;
31770;SDS011;18343;50.152;8.182;2023-04-03T02:06:21;12.02;;;4.97;;
31770;SDS011;18343;50.152;8.182;2023-04-03T02:09:05;11.15;;;5.18;;
31770;SDS011;18343;50.152;8.182;2023-04-03T02:11:50;10.43;;;4.47;;
31770;SDS011;18343;50.152;8.182;2023-04-03T02:14:35;7.50;;;2.95;;
31770;SDS011;18343;50.152;8.182;2023-04-03T02:17:19;5.75;;;2.67;;
31770;SDS011;18343;50.152;8.182;2023-04-03T02:20:04;5.70;;;2.30;;
31770;SDS011;18343;50.152;8.182;2023-04-03T02:22:52;5.35;;;2.00;;
31770;SDS011;18343;50.152;8.182;2023-04-03T02:25:36;4.43;;;1.73;;
31770;SDS011;18343;50.152;8.182;2023-04-03T02:28:21;5.43;;;1.80;;
31770;SDS011;18343;50.152;8.182;2023-04-03T02:31:05;3.83;;;1.60;;
31770;SDS011;18343;50.152;8.182;2023-04-03T02:33:50;4.47;;;1.75;;
31770;SDS011;18343;50.152;8.182;2023-04-03T02:36:35;4.38;;;1.65;;
31770;SDS011;18343;50.152;8.182;2023-04-03T02:39:21;3.70;;;1.40;;
31770;SDS011;18343;50.152;8.182;2023-04-03T02:42:06;3.63;;;1.98;;
31770;SDS011;18343;50.152;8.182;2023-04-03T02:44:51;3.95;;;1.77;;
31770;SDS011;18343;50.152;8.182;2023-04-03T02:47:35;7.72;;;1.60;;
31770;SDS011;18343;50.152;8.182;2023-04-03T02:50:19;4.32;;;1.80;;
31770;SDS011;18343;50.152;8.182;2023-04-03T02:53:04;5.20;;;2.00;;
31770;SDS011;18343;50.152;8.182;2023-04-03T02:55:49;3.40;;;1.80;;
31770;SDS011;18343;50.152;8.182;2023-04-03T02:58:34;5.57;;;2.30;;
31770;SDS011;18343;50.152;8.182;2023-04-03T03:01:19;6.13;;;2.03;;
31770;SDS011;18343;50.152;8.182;2023-04-03T03:04:03;7.70;;;1.80;;
31770;SDS011;18343;50.152;8.182;2023-04-03T03:06:48;7.22;;;1.75;;
31770;SDS011;18343;50.152;8.182;2023-04-03T03:09:33;5.95;;;2.08;;
31770;SDS011;18343;50.152;8.182;2023-04-03T03:12:19;5.13;;;1.58;;
31770;SDS011;18343;50.152;8.182;2023-04-03T03:15:04;2.88;;;1.30;;
31770;SDS011;18343;50.152;8.182;2023-04-03T03:17:50;10.25;;;2.25;;
31770;SDS011;18343;50.152;8.182;2023-04-03T03:20:34;4.05;;;1.77;;
31770;SDS011;18343;50.152;8.182;2023-04-03T03:23:19;5.30;;;2.10;;
31770;SDS011;18343;50.152;8.182;2023-04-03T03:26:06;6.05;;;1.67;;
31770;SDS011;18343;50.152;8.182;2023-04-03T03:28:54;7.57;;;2.00;;
31770;SDS011;18343;50.152;8.182;2023-04-03T03:31:39;4.28;;;2.10;;
31770;SDS011;18343;50.152;8.182;2023-04-03T03:34:23;5.57;;;1.90;;
31770;SDS011;18343;50.152;8.182;2023-04-03T03:37:08;4.72;;;2.20;;
31770;SDS011;18343;50.152;8.182;2023-04-03T03:39:52;3.33;;;1.77;;
31770;SDS011;18343;50.152;8.182;2023-04-03T03:42:37;7.35;;;2.40;;
31770;SDS011;18343;50.152;8.182;2023-04-03T03:45:23;7.50;;;1.70;;
31770;SDS011;18343;50.152;8.182;2023-04-03T03:48:08;10.07;;;1.50;;
31770;SDS011;18343;50.152;8.182;2023-04-03T03:50:52;5.18;;;2.00;;
31770;SDS011;18343;50.152;8.182;2023-04-03T03:53:37;6.15;;;1.90;;
31770;SDS011;18343;50.152;8.182;2023-04-03T03:56:21;6.53;;;1.80;;
31770;SDS011;18343;50.152;8.182;2023-04-03T03:59:06;5.88;;;1.73;;
31770;SDS011;18343;50.152;8.182;2023-04-03T04:01:52;6.90;;;1.77;;
31770;SDS011;18343;50.152;8.182;2023-04-03T04:04:36;4.90;;;1.77;;
31770;SDS011;18343;50.152;8.182;2023-04-03T04:07:21;7.80;;;2.00;;
31770;SDS011;18343;50.152;8.182;2023-04-03T04:10:06;5.82;;;1.85;;
31770;SDS011;18343;50.152;8.182;2023-04-03T04:12:52;4.30;;;1.73;;
31770;SDS011;18343;50.152;8.182;2023-04-03T04:15:37;10.23;;;2.03;;
31770;SDS011;18343;50.152;8.182;2023-04-03T04:18:23;9.55;;;1.65;;
31770;SDS011;18343;50.152;8.182;2023-04-03T04:21:07;4.40;;;1.80;;
31770;SDS011;18343;50.152;8.182;2023-04-03T04:23:52;8.85;;;2.00;;
31770;SDS011;18343;50.152;8.182;2023-04-03T04:26:36;3.78;;;1.65;;
31770;SDS011;18343;50.152;8.182;2023-04-03T04:29:21;8.35;;;1.55;;
31770;SDS011;18343;50.152;8.182;2023-04-03T04:32:05;2.85;;;1.45;;
31770;SDS011;18343;50.152;8.182;2023-04-03T04:34:51;9.00;;;1.63;;
31770;SDS011;18343;50.152;8.182;2023-04-03T04:37:36;5.60;;;2.03;;
31770;SDS011;18343;50.152;8.182;2023-04-03T04:40:21;5.25;;;1.65;;
31770;SDS011;18343;50.152;8.182;2023-04-03T04:43:05;4.85;;;1.40;;
31770;SDS011;18343;50.152;8.182;2023-04-03T04:45:59;7.60;;;1.80;;
31770;SDS011;18343;50.152;8.182;2023-04-03T04:48:45;8.25;;;1.83;;
31770;SDS011;18343;50.152;8.182;2023-04-03T04:51:31;6.43;;;1.77;;
31770;SDS011;18343;50.152;8.182;2023-04-03T04:54:15;6.78;;;1.85;;
31770;SDS011;18343;50.152;8.182;2023-04-03T04:57:00;8.20;;;2.42;;
31770;SDS011;18343;50.152;8.182;2023-04-03T04:59:45;7.90;;;2.05;;
31770;SDS011;18343;50.152;8.182;2023-04-03T05:02:29;6.90;;;1.85;;
31770;SDS011;18343;50.152;8.182;2023-04-03T05:05:14;8.27;;;2.08;;
31770;SDS011;18343;50.152;8.182;2023-04-03T05:08:00;7.03;;;2.30;;
31770;SDS011;18343;50.152;8.182;2023-04-03T05:10:45;7.88;;;2.13;;
31770;SDS011;18343;50.152;8.182;2023-04-03T05:13:30;9.18;;;2.20;;
31770;SDS011;18343;50.152;8.182;2023-04-03T05:16:15;14.35;;;2.55;;
31770;SDS011;18343;50.152;8.182;2023-04-03T05:18:59;8.60;;;2.33;;
31770;SDS011;18343;50.152;8.182;2023-04-03T05:21:43;8.02;;;2.50;;
31770;SDS011;18343;50.152;8.182;2023-04-03T05:24:30;9.70;;;1.73;;
31770;SDS011;18343;50.152;8.182;2023-04-03T05:27:14;7.88;;;2.03;;
31770;SDS011;18343;50.152;8.182;2023-04-03T05:29:59;7.50;;;2.22;;
31770;SDS011;18343;50.152;8.182;2023-04-03T05:32:43;6.90;;;1.90;;
31770;SDS011;18343;50.152;8.182;2023-04-03T05:35:28;5.63;;;1.75;;
31770;SDS011;18343;50.152;8.182;2023-04-03T05:38:13;7.63;;;2.35;;
31770;SDS011;18343;50.152;8.182;2023-04-03T05:40:59;5.30;;;2.53;;
31770;SDS011;18343;50.152;8.182;2023-04-03T05:43:44;6.93;;;2.28;;
31770;SDS011;18343;50.152;8.182;2023-04-03T05:46:28;8.27;;;2.17;;
31770;SDS011;18343;50.152;8.182;2023-04-03T05:49:13;9.82;;;2.10;;
31770;SDS011;18343;50.152;8.182;2023-04-03T05:51:57;5.53;;;2.35;;
31770;SDS011;18343;50.152;8.182;2023-04-03T05:54:42;7.90;;;2.45;;
31770;SDS011;18343;50.152;8.182;2023-04-03T05:57:28;5.97;;;2.00;;
31770;SDS011;18343;50.152;8.182;2023-04-03T06:00:13;4.32;;;1.92;;
31770;SDS011;18343;50.152;8.182;2023-04-03T06:02:59;6.65;;;2.55;;
31770;SDS011;18343;50.152;8.182;2023-04-03T06:05:43;9.80;;;2.40;;
31770;SDS011;18343;50.152;8.182;2023-04-03T06:08:28;9.63;;;2.30;;
31770;SDS011;18343;50.152;8.182;2023-04-03T06:11:13;6.38;;;2.13;;
31770;SDS011;18343;50.152;8.182;2023-04-03T06:13:58;5.38;;;2.03;;
31770;SDS011;18343;50.152;8.182;2023-04-03T06:16:43;5.55;;;2.22;;
31770;SDS011;18343;50.152;8.182;2023-04-03T06:19:27;5.65;;;1.95;;
31770;SDS011;18343;50.152;8.182;2023-04-03T06:22:12;5.53;;;2.38;;
31770;SDS011;18343;50.152;8.182;2023-04-03T06:24:57;7.68;;;2.55;;
31770;SDS011;18343;50.152;8.182;2023-04-03T06:27:42;7.55;;;2.75;;
31770;SDS011;18343;50.152;8.182;2023-04-03T06:30:28;8.35;;;2.28;;
31770;SDS011;18343;50.152;8.182;2023-04-03T06:33:12;6.90;;;2.40;;
31770;SDS011;18343;50.152;8.182;2023-04-03T06:35:57;8.32;;;2.72;;
31770;SDS011;18343;50.152;8.182;2023-04-03T06:38:42;5.32;;;2.55;;
31770;SDS011;18343;50.152;8.182;2023-04-03T06:41:27;6.68;;;2.00;;
31770;SDS011;18343;50.152;8.182;2023-04-03T06:44:12;7.35;;;2.38;;
31770;SDS011;18343;50.152;8.182;2023-04-03T06:46:58;9.85;;;2.83;;
31770;SDS011;18343;50.152;8.182;2023-04-03T06:49:42;10.80;;;2.53;;
31770;SDS011;18343;50.152;8.182;2023-04-03T06:52:28;7.18;;;3.13;;
31770;SDS011;18343;50.152;8.182;2023-04-03T06:55:13;7.35;;;2.00;;
31770;SDS011;18343;50.152;8.182;2023-04-03T06:57:57;8.07;;;2.72;;
31770;SDS011;18343;50.152;8.182;2023-04-03T07:00:42;7.97;;;2.20;;
31770;SDS011;18343;50.152;8.182;2023-04-03T07:03:28;7.38;;;2.35;;
31770;SDS011;18343;50.152;8.182;2023-04-03T07:06:13;6.07;;;2.50;;
31770;SDS011;18343;50.152;8.182;2023-04-03T07:09:00;8.13;;;2.70;;
31770;SDS011;18343;50.152;8.182;2023-04-03T07:11:44;9.73;;;2.50;;
31770;SDS011;18343;50.152;8.182;2023-04-03T07:14:29;8.73;;;3.55;;
31770;SDS011;18343;50.152;8.182;2023-04-03T07:17:14;9.32;;;3.13;;
31770;SDS011;18343;50.152;8.182;2023-04-03T07:20:00;10.00;;;2.70;;
31770;SDS011;18343;50.152;8.182;2023-04-03T07:22:45;6.03;;;2.30;;
31770;SDS011;18343;50.152;8.182;2023-04-03T07:25:29;4.90;;;2.00;;
31770;SDS011;18343;50.152;8.182;2023-04-03T07:28:15;7.15;;;2.25;;
31770;SDS011;18343;50.152;8.182;2023-04-03T07:31:01;6.53;;;2.00;;
31770;SDS011;18343;50.152;8.182;2023-04-03T07:33:48;7.43;;;2.38;;
31770;SDS011;18343;50.152;8.182;2023-04-03T07:36:34;6.00;;;1.83;;
31770;SDS011;18343;50.152;8.182;2023-04-03T07:39:19;9.60;;;2.63;;
31770;SDS011;18343;50.152;8.182;2023-04-03T07:42:03;4.20;;;2.20;;
31770;SDS011;18343;50.152;8.182;2023-04-03T07:44:48;3.10;;;1.90;;
31770;SDS011;18343;50.152;8.182;2023-04-03T07:47:32;8.32;;;2.63;;
31770;SDS011;18343;50.152;8.182;2023-04-03T07:50:17;5.95;;;2.50;;
31770;SDS011;18343;50.152;8.182;2023-04-03T07:53:03;10.70;;;2.67;;
31770;SDS011;18343;50.152;8.182;2023-04-03T07:55:48;14.00;;;2.58;;
31770;SDS011;18343;50.152;8.182;2023-04-03T07:58:32;6.78;;;2.50;;
31770;SDS011;18343;50.152;8.182;2023-04-03T08:01:17;4.60;;;1.98;;
31770;SDS011;18343;50.152;8.182;2023-04-03T08:04:02;7.15;;;2.00;;
31770;SDS011;18343;50.152;8.182;2023-04-03T08:06:47;5.30;;;2.10;;
31770;SDS011;18343;50.152;8.182;2023-04-03T08:09:33;6.75;;;1.98;;
31770;SDS011;18343;50.152;8.182;2023-04-03T08:12:18;7.07;;;2.10;;
31770;SDS011;18343;50.152;8.182;2023-04-03T08:15:03;7.78;;;2.28;;
31770;SDS011;18343;50.152;8.182;2023-04-03T08:17:49;6.45;;;2.22;;
31770;SDS011;18343;50.152;8.182;2023-04-03T08:20:33;3.95;;;1.77;;
31770;SDS011;18343;50.152;8.182;2023-04-03T08:23:18;7.15;;;2.10;;
31770;SDS011;18343;50.152;8.182;2023-04-03T08:26:08;7.22;;;2.50;;
31770;SDS011;18343;50.152;8.182;2023-04-03T08:28:54;6.32;;;2.45;;
31770;SDS011;18343;50.152;8.182;2023-04-03T08:31:38;4.72;;;2.10;;
31770;SDS011;18343;50.152;8.182;2023-04-03T08:34:23;5.60;;;2.25;;
31770;SDS011;18343;50.152;8.182;2023-04-03T08:37:07;8.43;;;2.97;;
31770;SDS011;18343;50.152;8.182;2023-04-03T08:39:52;8.43;;;2.50;;
31770;SDS011;18343;50.152;8.182;2023-04-03T08:42:41;5.88;;;2.63;;
31770;SDS011;18343;50.152;8.182;2023-04-03T08:45:40;8.98;;;2.50;;
31770;SDS011;18343;50.152;8.182;2023-04-03T08:48:29;7.28;;;2.65;;
31770;SDS011;18343;50.152;8.182;2023-04-03T08:51:19;5.25;;;2.60;;
31770;SDS011;18343;50.152;8.182;2023-04-03T08:54:06;4.43;;;2.35;;
31770;SDS011;18343;50.152;8.182;2023-04-03T08:57:02;8.82;;;2.40;;
31770;SDS011;18343;50.152;8.182;2023-04-03T08:59:50;4.53;;;2.38;;
31770;SDS011;18343;50.152;8.182;2023-04-03T09:02:39;5.72;;;2.22;;
31770;SDS011;18343;50.152;8.182;2023-04-03T09:05:32;4.35;;;1.88;;
31770;SDS011;18343;50.152;8.182;2023-04-03T09:08:26;7.82;;;2.42;;
31770;SDS011;18343;50.152;8.182;2023-04-03T09:11:16;6.70;;;1.95;;
31770;SDS011;18343;50.152;8.182;2023-04-03T09:14:08;4.43;;;1.92;;
31770;SDS011;18343;50.152;8.182;2023-04-03T09:17:06;8.00;;;2.13;;
31770;SDS011;18343;50.152;8.182;2023-04-03T09:20:01;3.80;;;1.63;;
31770;SDS011;18343;50.152;8.182;2023-04-03T09:22:58;5.97;;;2.03;;
31770;SDS011;18343;50.152;8.182;2023-04-03T09:25:42;7.93;;;2.10;;
31770;SDS011;18343;50.152;8.182;2023-04-03T09:28:29;5.05;;;2.03;;
31770;SDS011;18343;50.152;8.182;2023-04-03T09:31:18;5.22;;;1.80;;
31770;SDS011;18343;50.152;8.182;2023-04-03T09:34:10;6.28;;;2.15;;
31770;SDS011;18343;50.152;8.182;2023-04-03T09:37:04;6.88;;;1.98;;
31770;SDS011;18343;50.152;8.182;2023-04-03T09:39:49;8.05;;;2.17;;
31770;SDS011;18343;50.152;8.182;2023-04-03T09:42:38;5.10;;;2.00;;
31770;SDS011;18343;50.152;8.182;2023-04-03T09:45:26;8.38;;;2.42;;
31770;SDS011;18343;50.152;8.182;2023-04-03T09:48:16;4.82;;;1.90;;
31770;SDS011;18343;50.152;8.182;2023-04-03T09:51:04;7.60;;;2.08;;
31770;SDS011;18343;50.152;8.182;2023-04-03T09:53:48;7.45;;;2.00;;
31770;SDS011;18343;50.152;8.182;2023-04-03T09:56:33;7.82;;;2.20;;
31770;SDS011;18343;50.152;8.182;2023-04-03T09:59:18;9.23;;;2.25;;
31770;SDS011;18343;50.152;8.182;2023-04-03T10:02:03;6.80;;;2.47;;
31770;SDS011;18343;50.152;8.182;2023-04-03T10:05:26;6.60;;;2.25;;
31770;SDS011;18343;50.152;8.182;2023-04-03T10:08:24;5.20;;;2.42;;
31770;SDS011;18343;50.152;8.182;2023-04-03T10:11:14;6.97;;;2.17;;
31770;SDS011;18343;50.152;8.182;2023-04-03T10:14:02;6.68;;;2.72;;
31770;SDS011;18343;50.152;8.182;2023-04-03T10:16:48;8.82;;;2.45;;
31770;SDS011;18343;50.152;8.182;2023-04-03T10:19:41;4.05;;;1.95;;
31770;SDS011;18343;50.152;8.182;2023-04-03T10:22:31;8.73;;;2.58;;
31770;SDS011;18343;50.152;8.182;2023-04-03T10:25:28;9.60;;;2.83;;
31770;SDS011;18343;50.152;8.182;2023-04-03T10:28:20;4.47;;;2.10;;
31770;SDS011;18343;50.152;8.182;2023-04-03T10:31:14;8.20;;;2.58;;
31770;SDS011;18343;50.152;8.182;2023-04-03T10:34:06;6.00;;;2.47;;
31770;SDS011;18343;50.152;8.182;2023-04-03T10:37:05;6.95;;;2.30;;
31770;SDS011;18343;50.152;8.182;2023-04-03T10:40:01;7.90;;;2.40;;
31770;SDS011;18343;50.152;8.182;2023-04-03T10:42:59;6.18;;;2.20;;
31770;SDS011;18343;50.152;8.182;2023-04-03T10:45:55;7.72;;;2.97;;
31770;SDS011;18343;50.152;8.182;2023-04-03T10:48:49;6.72;;;2.92;;
31770;SDS011;18343;50.152;8.182;2023-04-03T10:51:47;10.95;;;2.67;;
31770;SDS011;18343;50.152;8.182;2023-04-03T10:54:38;8.77;;;3.00;;
31770;SDS011;18343;50.152;8.182;2023-04-03T10:57:26;4.30;;;2.05;;
31770;SDS011;18343;50.152;8.182;2023-04-03T11:00:15;6.30;;;2.47;;
31770;SDS011;18343;50.152;8.182;2023-04-03T11:03:05;3.17;;;2.17;;
31770;SDS011;18343;50.152;8.182;2023-04-03T11:05:55;5.53;;;2.10;;
31770;SDS011;18343;50.152;8.182;2023-04-03T11:08:42;4.43;;;2.33;;
31770;SDS011;18343;50.152;8.182;2023-04-03T11:11:31;6.78;;;2.20;;
31770;SDS011;18343;50.152;8.182;2023-04-03T11:14:21;7.00;;;1.80;;
31770;SDS011;18343;50.152;8.182;2023-04-03T11:17:15;7.50;;;2.20;;
31770;SDS011;18343;50.152;8.182;2023-04-03T11:20:14;4.35;;;2.38;;
31770;SDS011;18343;50.152;8.182;2023-04-03T11:23:03;4.10;;;2.15;;
31770;SDS011;18343;50.152;8.182;2023-04-03T11:25:57;4.73;;;2.13;;
31770;SDS011;18343;50.152;8.182;2023-04-03T11:28:52;6.20;;;2.08;;
31770;SDS011;18343;50.152;8.182;2023-04-03T11:31:46;4.00;;;2.00;;
31770;SDS011;18343;50.152;8.182;2023-04-03T11:34:50;6.57;;;2.03;;
31770;SDS011;18343;50.152;8.182;2023-04-03T11:37:38;2.85;;;1.90;;
31770;SDS011;18343;50.152;8.182;2023-04-03T11:40:25;3.65;;;2.03;;
31770;SDS011;18343;50.152;8.182;2023-04-03T11:43:21;3.45;;;2.00;;
31770;SDS011;18343;50.152;8.182;2023-04-03T11:46:08;5.40;;;1.90;;
31770;SDS011;18343;50.152;8.182;2023-04-03T11:48:53;3.60;;;1.92;;
31770;SDS011;18343;50.152;8.182;2023-04-03T11:51:40;4.75;;;2.00;;
31770;SDS011;18343;50.152;8.182;2023-04-03T11:54:36;5.22;;;1.98;;
31770;SDS011;18343;50.152;8.182;2023-04-03T12:00:56;3.25;;;2.45;;
31770;SDS011;18343;50.152;8.182;2023-04-03T12:06:59;4.97;;;2.70;;
31770;SDS011;18343;50.152;8.182;2023-04-03T12:10:18;4.88;;;2.50;;
31770;SDS011;18343;50.152;8.182;2023-04-03T12:13:12;4.28;;;2.30;;
31770;SDS011;18343;50.152;8.182;2023-04-03T12:16:00;5.10;;;3.10;;
31770;SDS011;18343;50.152;8.182;2023-04-03T12:18:53;7.28;;;2.67;;
31770;SDS011;18343;50.152;8.182;2023-04-03T12:24:58;5.65;;;2.00;;
31770;SDS011;18343;50.152;8.182;2023-04-03T12:28:35;5.82;;;2.50;;
31770;SDS011;18343;50.152;8.182;2023-04-03T12:31:23;6.28;;;2.40;;
31770;SDS011;18343;50.152;8.182;2023-04-03T12:34:29;5.32;;;2.33;;
31770;SDS011;18343;50.152;8.182;2023-04-03T12:37:39;6.72;;;2.10;;
31770;SDS011;18343;50.152;8.182;2023-04-03T12:41:16;3.57;;;1.93;;
31770;SDS011;18343;50.152;8.182;2023-04-03T12:44:23;5.38;;;3.00;;
31770;SDS011;18343;50.152;8.182;2023-04-03T12:47:28;7.40;;;2.22;;
31770;SDS011;18343;50.152;8.182;2023-04-03T12:50:18;4.97;;;2.35;;
31770;SDS011;18343;50.152;8.182;2023-04-03T12:53:11;4.68;;;2.22;;
31770;SDS011;18343;50.152;8.182;2023-04-03T12:59:15;5.18;;;2.40;;
31770;SDS011;18343;50.152;8.182;2023-04-03T13:02:09;7.43;;;2.50;;
31770;SDS011;18343;50.152;8.182;2023-04-03T13:05:06;6.38;;;2.47;;
31770;SDS011;18343;50.152;8.182;2023-04-03T13:07:59;6.50;;;2.65;;
31770;SDS011;18343;50.152;8.182;2023-04-03T13:10:50;6.50;;;2.28;;
31770;SDS011;18343;50.152;8.182;2023-04-03T13:13:39;6.22;;;2.28;;
31770;SDS011;18343;50.152;8.182;2023-04-03T13:16:36;6.10;;;2.30;;
31770;SDS011;18343;50.152;8.182;2023-04-03T13:19:22;3.95;;;2.25;;
31770;SDS011;18343;50.152;8.182;2023-04-03T13:22:15;4.85;;;2.00;;
31770;SDS011;18343;50.152;8.182;2023-04-03T13:25:11;3.22;;;1.90;;
31770;SDS011;18343;50.152;8.182;2023-04-03T13:28:00;3.38;;;1.83;;
31770;SDS011;18343;50.152;8.182;2023-04-03T13:30:55;4.18;;;1.80;;
31770;SDS011;18343;50.152;8.182;2023-04-03T13:33:51;5.28;;;2.40;;
31770;SDS011;18343;50.152;8.182;2023-04-03T13:36:41;4.88;;;1.90;;
31770;SDS011;18343;50.152;8.182;2023-04-03T13:39:30;3.67;;;1.90;;
31770;SDS011;18343;50.152;8.182;2023-04-03T13:42:16;3.72;;;1.75;;
31770;SDS011;18343;50.152;8.182;2023-04-03T13:45:17;4.20;;;2.10;;
31770;SDS011;18343;50.152;8.182;2023-04-03T13:48:10;9.18;;;2.33;;
31770;SDS011;18343;50.152;8.182;2023-04-03T13:51:03;5.05;;;1.92;;
31770;SDS011;18343;50.152;8.182;2023-04-03T13:53:51;3.38;;;1.50;;
31770;SDS011;18343;50.152;8.182;2023-04-03T13:56:39;5.80;;;1.35;;
31770;SDS011;18343;50.152;8.182;2023-04-03T13:59:28;3.10;;;1.55;;
31770;SDS011;18343;50.152;8.182;2023-04-03T14:02:18;7.13;;;1.77;;
31770;SDS011;18343;50.152;8.182;2023-04-03T14:05:07;3.67;;;2.10;;
31770;SDS011;18343;50.152;8.182;2023-04-03T14:07:52;3.45;;;1.77;;
31770;SDS011;18343;50.152;8.182;2023-04-03T14:10:38;8.45;;;2.00;;
31770;SDS011;18343;50.152;8.182;2023-04-03T14:13:42;3.53;;;1.70;;
31770;SDS011;18343;50.152;8.182;2023-04-03T14:16:29;2.38;;;1.80;;
31770;SDS011;18343;50.152;8.182;2023-04-03T14:19:20;5.13;;;1.85;;
31770;SDS011;18343;50.152;8.182;2023-04-03T14:22:11;2.50;;;1.40;;
31770;SDS011;18343;50.152;8.182;2023-04-03T14:25:00;2.72;;;1.50;;
31770;SDS011;18343;50.152;8.182;2023-04-03T14:27:47;4.20;;;1.70;;
31770;SDS011;18343;50.152;8.182;2023-04-03T14:30:33;4.75;;;1.60;;
31770;SDS011;18343;50.152;8.182;2023-04-03T14:33:19;4.53;;;1.48;;
31770;SDS011;18343;50.152;8.182;2023-04-03T14:36:12;3.30;;;1.77;;
31770;SDS011;18343;50.152;8.182;2023-04-03T14:38:58;3.65;;;1.58;;
31770;SDS011;18343;50.152;8.182;2023-04-03T14:41:43;2.50;;;1.50;;
31770;SDS011;18343;50.152;8.182;2023-04-03T14:44:29;6.60;;;1.88;;
31770;SDS011;18343;50.152;8.182;2023-04-03T14:47:14;3.58;;;1.52;;
31770;SDS011;18343;50.152;8.182;2023-04-03T14:50:03;2.28;;;1.52;;
31770;SDS011;18343;50.152;8.182;2023-04-03T14:52:53;3.78;;;1.50;;
31770;SDS011;18343;50.152;8.182;2023-04-03T14:55:40;2.35;;;1.30;;
31770;SDS011;18343;50.152;8.182;2023-04-03T14:58:27;1.90;;;1.40;;
31770;SDS011;18343;50.152;8.182;2023-04-03T15:01:12;6.28;;;2.20;;
31770;SDS011;18343;50.152;8.182;2023-04-03T15:03:57;5.63;;;1.58;;
31770;SDS011;18343;50.152;8.182;2023-04-03T15:06:41;5.00;;;1.50;;
31770;SDS011;18343;50.152;8.182;2023-04-03T15:09:28;4.25;;;1.50;;
31770;SDS011;18343;50.152;8.182;2023-04-03T15:12:13;3.80;;;1.58;;
31770;SDS011;18343;50.152;8.182;2023-04-03T15:14:58;3.88;;;1.40;;
31770;SDS011;18343;50.152;8.182;2023-04-03T15:17:42;2.90;;;1.50;;
31770;SDS011;18343;50.152;8.182;2023-04-03T15:20:28;4.07;;;1.33;;
31770;SDS011;18343;50.152;8.182;2023-04-03T15:23:16;2.85;;;1.48;;
31770;SDS011;18343;50.152;8.182;2023-04-03T15:26:03;1.95;;;1.00;;
31770;SDS011;18343;50.152;8.182;2023-04-03T15:28:48;4.65;;;1.65;;
31770;SDS011;18343;50.152;8.182;2023-04-03T15:31:33;2.30;;;1.10;;
31770;SDS011;18343;50.152;8.182;2023-04-03T15:34:17;5.15;;;1.50;;
31770;SDS011;18343;50.152;8.182;2023-04-03T15:37:02;2.92;;;1.20;;
31770;SDS011;18343;50.152;8.182;2023-04-03T15:39:47;3.85;;;1.40;;
31770;SDS011;18343;50.152;8.182;2023-04-03T15:42:35;6.53;;;1.30;;
31770;SDS011;18343;50.152;8.182;2023-04-03T15:45:20;3.05;;;1.38;;
31770;SDS011;18343;50.152;8.182;2023-04-03T15:48:05;3.17;;;1.23;;
31770;SDS011;18343;50.152;8.182;2023-04-03T15:50:51;3.75;;;1.15;;
31770;SDS011;18343;50.152;8.182;2023-04-03T15:53:36;4.80;;;1.38;;
31770;SDS011;18343;50.152;8.182;2023-04-03T15:56:21;3.97;;;1.55;;
31770;SDS011;18343;50.152;8.182;2023-04-03T15:59:07;4.65;;;1.67;;
31770;SDS011;18343;50.152;8.182;2023-04-03T16:01:53;3.78;;;1.40;;
31770;SDS011;18343;50.152;8.182;2023-04-03T16:04:38;5.32;;;1.27;;
31770;SDS011;18343;50.152;8.182;2023-04-03T16:07:22;4.57;;;1.30;;
31770;SDS011;18343;50.152;8.182;2023-04-03T16:10:08;3.80;;;1.17;;
31770;SDS011;18343;50.152;8.182;2023-04-03T16:12:54;7.00;;;1.27;;
31770;SDS011;18343;50.152;8.182;2023-04-03T16:15:40;5.72;;;1.13;;
31770;SDS011;18343;50.152;8.182;2023-04-03T16:18:25;6.75;;;1.30;;
31770;SDS011;18343;50.152;8.182;2023-04-03T16:21:11;5.80;;;1.55;;
31770;SDS011;18343;50.152;8.182;2023-04-03T16:23:58;9.23;;;1.95;;
31770;SDS011;18343;50.152;8.182;2023-04-03T16:26:43;3.63;;;1.38;;
31770;SDS011;18343;50.152;8.182;2023-04-03T16:29:28;6.93;;;2.00;;
31770;SDS011;18343;50.152;8.182;2023-04-03T16:32:14;7.75;;;1.90;;
31770;SDS011;18343;50.152;8.182;2023-04-03T16:34:58;8.60;;;1.60;;
31770;SDS011;18343;50.152;8.182;2023-04-03T16:37:43;2.90;;;1.42;;
31770;SDS011;18343;50.152;8.182;2023-04-03T16:40:28;4.90;;;1.40;;
31770;SDS011;18343;50.152;8.182;2023-04-03T16:43:13;6.80;;;1.45;;
31770;SDS011;18343;50.152;8.182;2023-04-03T16:45:57;4.28;;;1.20;;
31770;SDS011;18343;50.152;8.182;2023-04-03T16:48:44;3.50;;;1.33;;
31770;SDS011;18343;50.152;8.182;2023-04-03T16:51:29;5.25;;;1.60;;
31770;SDS011;18343;50.152;8.182;2023-04-03T16:54:14;5.15;;;1.33;;
31770;SDS011;18343;50.152;8.182;2023-04-03T16:56:59;6.45;;;1.83;;
31770;SDS011;18343;50.152;8.182;2023-04-03T16:59:43;5.80;;;2.15;;
31770;SDS011;18343;50.152;8.182;2023-04-03T17:02:28;2.45;;;1.10;;
31770;SDS011;18343;50.152;8.182;2023-04-03T17:05:14;3.53;;;1.25;;